createdAt,value
2023-02-11T00:00:31.227Z,86.01
2023-02-11T00:04:21.360Z,85.82
2023-02-11T00:07:55.968Z,85.75
2023-02-11T00:11:25.574Z,85.75
2023-02-11T00:14:53.285Z,85.88
2023-02-11T00:18:20.891Z,85.81
2023-02-11T00:21:48.176Z,85.90
2023-02-11T00:25:15.336Z,85.67
2023-02-11T00:28:43.080Z,85.64
2023-02-11T00:32:11.144Z,85.68
2023-02-11T00:35:39.672Z,85.67
2023-02-11T00:39:08.473Z,85.71
2023-02-11T00:42:37.429Z,85.86
2023-02-11T00:46:04.970Z,85.66
2023-02-11T00:49:32.322Z,85.61
2023-02-11T00:53:07.483Z,85.45
2023-02-11T00:56:35.109Z,85.42
2023-02-11T01:00:02.388Z,85.62
2023-02-11T01:03:29.808Z,85.52
2023-02-11T01:06:59.464Z,85.51
2023-02-11T01:10:26.815Z,85.35
2023-02-11T01:13:53.994Z,85.38
2023-02-11T01:17:23.289Z,85.55
2023-02-11T01:20:54.012Z,85.50
2023-02-11T01:24:21.233Z,85.55
2023-02-11T01:27:48.512Z,85.57
2023-02-11T01:31:15.714Z,85.26
2023-02-11T01:34:43.069Z,85.32
2023-02-11T01:38:18.459Z,85.22
2023-02-11T01:41:45.784Z,85.10
2023-02-11T01:45:47.321Z,84.99
2023-02-11T01:49:19.810Z,85.07
2023-02-11T01:52:49.653Z,85.38
2023-02-11T01:56:35.287Z,85.10
2023-02-11T02:00:11.882Z,85.27
2023-02-11T02:03:47.285Z,85.34
2023-02-11T02:07:19.108Z,85.47
2023-02-11T02:10:48.845Z,85.33
2023-02-11T02:14:16.996Z,85.37
2023-02-11T02:17:55.202Z,85.13
2023-02-11T02:22:05.319Z,85.03
2023-02-11T02:25:49.490Z,84.90
2023-02-11T02:29:49.097Z,84.85
2023-02-11T02:33:25.669Z,84.91
2023-02-11T02:37:02.595Z,84.51
2023-02-11T02:40:33.448Z,84.92
2023-02-11T02:44:01.315Z,84.77
2023-02-11T02:47:28.636Z,84.60
2023-02-11T02:51:03.120Z,84.52
2023-02-11T02:54:45.894Z,84.76
2023-02-11T02:58:52.781Z,84.70
2023-02-11T03:02:26.559Z,84.46
2023-02-11T03:06:02.890Z,84.42
2023-02-11T03:09:36.172Z,84.43
2023-02-11T03:13:06.560Z,84.30
2023-02-11T03:16:39.185Z,84.52
2023-02-11T03:20:11.646Z,84.04
2023-02-11T03:23:42.412Z,84.23
2023-02-11T03:27:17.888Z,84.52
2023-02-11T03:30:50.774Z,84.51
2023-02-11T03:34:29.456Z,84.22
2023-02-11T03:38:02.378Z,84.28
2023-02-11T03:41:31.668Z,84.02
2023-02-11T03:45:13.245Z,84.18
2023-02-11T03:48:43.304Z,83.88
2023-02-11T03:52:12.461Z,83.96
2023-02-11T03:55:41.618Z,83.90
2023-02-11T03:59:09.188Z,83.96
2023-02-11T04:02:38.231Z,84.02
2023-02-11T04:06:06.006Z,84.00
2023-02-11T04:09:33.354Z,83.98
2023-02-11T04:13:00.510Z,84.26
2023-02-11T04:16:27.802Z,84.17
2023-02-11T04:19:55.239Z,84.22
2023-02-11T04:23:22.623Z,84.36
2023-02-11T04:26:49.836Z,84.45
2023-02-11T04:30:17.707Z,84.72
2023-02-11T04:33:44.991Z,85.09
2023-02-11T04:37:12.533Z,85.16
2023-02-11T04:40:39.821Z,85.15
2023-02-11T04:44:07.883Z,85.50
2023-02-11T04:47:35.354Z,85.31
2023-02-11T04:51:02.584Z,85.88
2023-02-11T04:54:30.011Z,85.82
2023-02-11T04:57:57.226Z,86.10
2023-02-11T05:01:24.484Z,86.08
2023-02-11T05:04:54.423Z,86.20
2023-02-11T05:08:21.596Z,86.17
2023-02-11T05:11:48.833Z,86.31
2023-02-11T05:15:16.091Z,86.29
2023-02-11T05:18:44.324Z,86.24
2023-02-11T05:22:11.643Z,86.58
2023-02-11T05:25:38.825Z,86.94
2023-02-11T05:29:06.043Z,87.07
2023-02-11T05:32:33.636Z,86.89
2023-02-11T05:36:07.043Z,86.90
2023-02-11T05:39:34.488Z,86.73
2023-02-11T05:43:01.683Z,87.02
2023-02-11T05:46:29.044Z,87.26
2023-02-11T05:49:59.585Z,87.54
2023-02-11T05:53:26.942Z,87.67
2023-02-11T05:56:54.235Z,87.54
2023-02-11T06:00:21.995Z,87.59
2023-02-11T06:03:50.211Z,87.84
2023-02-11T06:07:17.586Z,88.08
2023-02-11T06:10:47.536Z,88.11
2023-02-11T06:14:15.280Z,88.29
2023-02-11T06:17:42.440Z,88.44
2023-02-11T06:21:12.532Z,88.73
2023-02-11T06:24:59.908Z,88.71
2023-02-11T06:28:27.048Z,88.95
2023-02-11T06:31:54.396Z,89.15
2023-02-11T06:35:22.283Z,89.23
2023-02-11T06:38:50.299Z,89.37
2023-02-11T06:42:17.632Z,89.66
2023-02-11T06:45:45.406Z,89.54
2023-02-11T06:49:13.530Z,89.70
2023-02-11T06:52:40.834Z,90.01
2023-02-11T06:56:10.331Z,89.93
2023-02-11T06:59:37.603Z,90.36
2023-02-11T07:03:05.243Z,90.44
2023-02-11T07:06:32.877Z,90.33
2023-02-11T07:10:04.766Z,90.54
2023-02-11T07:13:34.953Z,90.70
2023-02-11T07:17:04.260Z,90.66
2023-02-11T07:20:34.285Z,90.52
2023-02-11T07:24:01.509Z,90.85
2023-02-11T07:27:31.817Z,90.69
2023-02-11T07:30:59.321Z,90.57
2023-02-11T07:34:26.710Z,90.34
2023-02-11T07:37:56.428Z,90.26
2023-02-11T07:41:25.584Z,90.25
2023-02-11T07:44:53.010Z,90.22
2023-02-11T07:48:20.110Z,90.22
2023-02-11T07:51:49.252Z,90.25
2023-02-11T07:55:19.680Z,90.33
2023-02-11T07:58:47.045Z,90.32
2023-02-11T08:02:23.378Z,90.37
2023-02-11T08:05:53.982Z,90.28
2023-02-11T08:09:21.188Z,90.33
2023-02-11T08:12:58.719Z,90.32
2023-02-11T08:16:28.905Z,90.27
2023-02-11T08:19:56.264Z,90.31
2023-02-11T08:23:32.183Z,90.48
2023-02-11T08:26:59.291Z,90.49
2023-02-11T08:30:27.574Z,90.56
2023-02-11T08:33:57.957Z,90.45
2023-02-11T08:37:25.165Z,90.10
2023-02-11T08:40:52.848Z,89.98
2023-02-11T08:44:21.130Z,89.96
2023-02-11T08:47:48.456Z,89.68
2023-02-11T08:51:18.646Z,89.62
2023-02-11T08:54:46.117Z,89.65
2023-02-11T08:58:13.404Z,89.66
2023-02-11T09:01:44.428Z,89.50
2023-02-11T09:05:13.123Z,89.74
2023-02-11T09:08:44.710Z,89.65
2023-02-11T09:12:15.896Z,89.39
2023-02-11T09:15:46.029Z,89.59
2023-02-11T09:19:13.585Z,89.52
2023-02-11T09:22:40.926Z,89.63
2023-02-11T09:26:11.316Z,89.45
2023-02-11T09:29:38.449Z,89.51
2023-02-11T09:33:05.854Z,89.45
2023-02-11T09:36:35.361Z,89.41
2023-02-11T09:40:02.657Z,89.47
2023-02-11T09:43:48.971Z,89.26
2023-02-11T09:47:28.821Z,89.03
2023-02-11T09:51:01.593Z,89.21
2023-02-11T09:54:35.503Z,89.01
2023-02-11T09:58:06.608Z,88.99
2023-02-11T10:01:42.992Z,88.36
2023-02-11T10:05:29.951Z,88.29
2023-02-11T10:09:05.903Z,88.56
2023-02-11T10:12:53.322Z,88.50
2023-02-11T10:16:35.226Z,88.77
2023-02-11T10:20:19.778Z,88.51
2023-02-11T10:23:51.987Z,88.67
2023-02-11T10:27:23.407Z,88.68
2023-02-11T10:30:59.002Z,88.16
2023-02-11T10:34:26.372Z,88.38
2023-02-11T10:37:53.609Z,88.39
2023-02-11T10:41:25.562Z,88.49
2023-02-11T10:45:01.611Z,88.69
2023-02-11T10:48:44.603Z,88.99
2023-02-11T10:52:23.762Z,88.80
2023-02-11T10:55:57.293Z,88.85
2023-02-11T10:59:31.396Z,88.75
2023-02-11T11:03:02.026Z,88.42
2023-02-11T11:06:35.294Z,88.57
2023-02-11T11:10:05.727Z,88.60
2023-02-11T11:13:35.022Z,88.98
2023-02-11T11:17:02.295Z,88.69
2023-02-11T11:20:32.356Z,88.78
2023-02-11T11:24:03.354Z,89.08
2023-02-11T11:27:30.799Z,88.88
2023-02-11T11:31:02.434Z,88.80
2023-02-11T11:34:33.857Z,89.63
2023-02-11T11:38:04.440Z,89.76
2023-02-11T11:41:34.946Z,89.98
2023-02-11T11:45:05.736Z,90.51
2023-02-11T11:48:40.688Z,90.60
2023-02-11T11:52:19.895Z,90.85
2023-02-11T11:55:50.754Z,90.74
2023-02-11T11:59:18.515Z,91.16
2023-02-11T12:03:16.991Z,90.85
2023-02-11T12:06:55.267Z,91.28
2023-02-11T12:10:45.604Z,91.13
2023-02-11T12:14:23.741Z,91.33
2023-02-11T12:18:05.032Z,92.12
2023-02-11T12:21:42.911Z,93.11
2023-02-11T12:25:26.349Z,93.13
2023-02-11T12:29:06.580Z,93.63
2023-02-11T12:32:41.796Z,93.71
2023-02-11T12:36:16.739Z,93.65
2023-02-11T12:39:51.736Z,94.47
2023-02-11T12:43:25.068Z,94.68
2023-02-11T12:47:03.377Z,95.09
2023-02-11T12:50:46.374Z,95.35
2023-02-11T12:54:22.028Z,95.44
2023-02-11T12:57:51.345Z,96.48
2023-02-11T13:01:23.814Z,96.23
2023-02-11T13:04:55.267Z,96.41
2023-02-11T13:08:29.099Z,96.66
2023-02-11T13:12:20.239Z,96.99
2023-02-11T13:15:51.905Z,97.43
2023-02-11T13:19:27.795Z,97.66
2023-02-11T13:23:02.884Z,97.74
2023-02-11T13:26:37.604Z,97.77
2023-02-11T13:30:32.606Z,97.94
2023-02-11T13:33:59.841Z,98.20
2023-02-11T13:37:30.078Z,98.11
2023-02-11T13:41:06.089Z,98.73
2023-02-11T13:44:36.645Z,98.47
2023-02-11T13:48:06.305Z,98.58
2023-02-11T13:51:41.804Z,98.34
2023-02-11T13:55:21.547Z,98.28
2023-02-11T13:58:52.213Z,98.61
2023-02-11T14:02:49.333Z,98.65
2023-02-11T14:07:02.595Z,98.68
2023-02-11T14:10:55.735Z,99.12
2023-02-11T14:14:29.197Z,98.78
2023-02-11T14:17:56.401Z,99.17
2023-02-11T14:21:32.422Z,99.46
2023-02-11T14:25:02.534Z,99.35
2023-02-11T14:28:36.283Z,99.40
2023-02-11T14:32:14.604Z,99.77
2023-02-11T14:35:52.219Z,99.75
2023-02-11T14:39:30.646Z,99.72
2023-02-11T14:43:03.131Z,99.33
2023-02-11T14:46:44.692Z,99.53
2023-02-11T14:50:23.325Z,99.44
2023-02-11T14:54:04.855Z,99.33
2023-02-11T14:57:33.575Z,99.30
2023-02-11T15:01:30.306Z,99.40
2023-02-11T15:05:26.278Z,99.73
2023-02-11T15:09:02.128Z,99.69
2023-02-11T15:12:30.346Z,99.78
2023-02-11T15:16:03.555Z,99.54
2023-02-11T15:19:35.051Z,99.20
2023-02-11T15:23:04.986Z,99.41
2023-02-11T15:26:32.378Z,99.60
2023-02-11T15:29:59.640Z,99.32
2023-02-11T15:33:29.966Z,99.45
2023-02-11T15:36:58.568Z,99.25
2023-02-11T15:40:29.138Z,98.84
2023-02-11T15:43:56.492Z,98.93
2023-02-11T15:47:30.875Z,99.17
2023-02-11T15:51:01.739Z,99.23
2023-02-11T15:54:32.571Z,98.89
2023-02-11T15:58:02.236Z,98.78
2023-02-11T16:01:34.016Z,99.03
2023-02-11T16:05:04.444Z,98.87
2023-02-11T16:08:33.039Z,98.88
2023-02-11T16:12:01.628Z,98.66
2023-02-11T16:15:45.789Z,98.89
2023-02-11T16:19:22.905Z,98.82
2023-02-11T16:22:51.502Z,98.93
2023-02-11T16:26:43.556Z,99.12
2023-02-11T16:30:28.740Z,98.98
2023-02-11T16:33:58.386Z,98.55
2023-02-11T16:37:28.528Z,98.48
2023-02-11T16:40:55.991Z,98.49
2023-02-11T16:44:23.363Z,98.48
2023-02-11T16:47:50.753Z,98.38
2023-02-11T16:51:17.928Z,98.50
2023-02-11T16:54:45.453Z,98.37
2023-02-11T16:58:12.676Z,98.63
2023-02-11T17:01:41.752Z,98.40
2023-02-11T17:05:18.554Z,98.43
2023-02-11T17:08:46.322Z,98.68
2023-02-11T17:12:16.790Z,98.57
2023-02-11T17:15:43.925Z,98.36
2023-02-11T17:19:13.878Z,98.43
2023-02-11T17:22:41.204Z,98.24
2023-02-11T17:26:09.252Z,98.61
2023-02-11T17:29:39.545Z,98.75
2023-02-11T17:33:06.911Z,98.58
2023-02-11T17:36:34.445Z,98.67
2023-02-11T17:40:04.222Z,98.50
2023-02-11T17:43:31.813Z,98.37
2023-02-11T17:46:59.121Z,98.25
2023-02-11T17:50:29.229Z,98.69
2023-02-11T17:54:01.182Z,98.72
2023-02-11T17:57:28.335Z,98.68
2023-02-11T18:00:58.867Z,98.44
2023-02-11T18:04:26.281Z,98.73
2023-02-11T18:07:57.112Z,98.58
2023-02-11T18:11:25.257Z,98.46
2023-02-11T18:14:58.014Z,98.49
2023-02-11T18:18:25.740Z,98.60
2023-02-11T18:21:53.006Z,98.47
2023-02-11T18:25:20.477Z,98.52
2023-02-11T18:28:47.746Z,98.45
2023-02-11T18:32:16.165Z,98.25
2023-02-11T18:35:49.323Z,98.28
2023-02-11T18:39:20.287Z,98.45
2023-02-11T18:42:48.389Z,98.48
2023-02-11T18:46:17.429Z,98.57
2023-02-11T18:49:44.661Z,98.37
2023-02-11T18:53:12.403Z,98.72
2023-02-11T18:56:50.886Z,98.77
2023-02-11T19:00:20.451Z,98.69
2023-02-11T19:03:46.489Z,98.73
2023-02-11T19:07:13.885Z,98.46
2023-02-11T19:10:45.021Z,98.67
2023-02-11T19:14:13.216Z,98.15
2023-02-11T19:17:40.476Z,98.50
2023-02-11T19:21:12.496Z,98.47
2023-02-11T19:24:49.245Z,98.36
2023-02-11T19:28:16.812Z,98.38
2023-02-11T19:31:46.898Z,98.41
2023-02-11T19:35:14.337Z,98.19
2023-02-11T19:38:41.620Z,98.30
2023-02-11T19:42:09.356Z,98.65
2023-02-11T19:45:39.727Z,98.21
2023-02-11T19:49:08.265Z,98.52
2023-02-11T19:52:38.235Z,98.43
2023-02-11T19:56:07.694Z,98.62
2023-02-11T19:59:34.992Z,98.38
2023-02-11T20:03:02.239Z,98.63
2023-02-11T20:06:33.074Z,98.34
2023-02-11T20:10:00.257Z,98.53
2023-02-11T20:13:29.372Z,98.81
2023-02-11T20:16:56.576Z,98.72
2023-02-11T20:20:24.091Z,98.65
2023-02-11T20:23:52.790Z,98.65
2023-02-11T20:27:20.273Z,98.30
2023-02-11T20:30:58.364Z,98.28
2023-02-11T20:34:26.022Z,98.27
2023-02-11T20:37:53.262Z,98.04
2023-02-11T20:41:22.382Z,98.10
2023-02-11T20:44:50.012Z,97.84
2023-02-11T20:48:17.354Z,97.99
2023-02-11T20:51:45.086Z,97.78
2023-02-11T20:55:13.485Z,97.63
2023-02-11T20:58:43.154Z,97.71
2023-02-11T21:02:13.275Z,97.67
2023-02-11T21:05:42.935Z,97.69
2023-02-11T21:09:12.719Z,97.54
2023-02-11T21:12:39.848Z,97.71
2023-02-11T21:16:08.837Z,97.59
2023-02-11T21:19:36.142Z,97.92
2023-02-11T21:23:03.536Z,97.71
2023-02-11T21:26:30.795Z,98.14
2023-02-11T21:29:57.848Z,97.98
2023-02-11T21:33:26.124Z,97.73
2023-02-11T21:36:53.320Z,97.78
2023-02-11T21:40:27.323Z,97.90
2023-02-11T21:43:54.980Z,97.84
2023-02-11T21:47:22.284Z,97.85
2023-02-11T21:50:50.068Z,97.68
2023-02-11T21:54:18.869Z,97.93
2023-02-11T21:57:46.609Z,97.78
2023-02-11T22:01:16.008Z,97.87
2023-02-11T22:04:43.408Z,97.58
2023-02-11T22:08:10.979Z,98.13
2023-02-11T22:11:39.111Z,97.94
2023-02-11T22:15:07.775Z,97.91
2023-02-11T22:18:35.425Z,98.16
2023-02-11T22:22:02.887Z,97.89
2023-02-11T22:25:30.269Z,98.09
2023-02-11T22:28:58.325Z,97.86
2023-02-11T22:32:25.633Z,98.06
2023-02-11T22:35:58.704Z,98.26
2023-02-11T22:39:26.319Z,98.34
2023-02-11T22:42:53.828Z,98.53
2023-02-11T22:46:22.093Z,98.27
2023-02-11T22:49:49.442Z,98.79
2023-02-11T22:53:16.660Z,98.73
2023-02-11T22:56:44.607Z,99.24
2023-02-11T23:00:14.553Z,99.44
2023-02-11T23:03:40.065Z,99.89
2023-02-11T23:07:07.159Z,99.64
2023-02-11T23:10:35.336Z,99.76
2023-02-11T23:14:04.178Z,99.84
2023-02-11T23:17:31.532Z,99.28
2023-02-11T23:21:03.451Z,98.99
2023-02-11T23:24:30.863Z,98.65
2023-02-11T23:27:58.103Z,98.36
2023-02-11T23:31:27.351Z,98.23
2023-02-11T23:34:54.736Z,98.20
2023-02-11T23:38:21.798Z,98.44
2023-02-11T23:41:49.627Z,98.61
2023-02-11T23:45:17.210Z,98.55
2023-02-11T23:48:52.498Z,98.46
2023-02-11T23:52:19.777Z,98.56
2023-02-11T23:55:48.387Z,98.62
2023-02-11T23:59:15.766Z,98.58
